createdAt,value
2023-02-19T00:00:13.504Z,3.05
2023-02-19T00:02:51.874Z,2.67
2023-02-19T00:05:26.618Z,2.90
2023-02-19T00:08:01.066Z,3.03
2023-02-19T00:10:35.271Z,2.95
2023-02-19T00:13:10.088Z,2.70
2023-02-19T00:15:46.126Z,2.85
2023-02-19T00:18:20.618Z,3.00
2023-02-19T00:20:55.614Z,3.08
2023-02-19T00:23:30.904Z,3.30
2023-02-19T00:26:17.490Z,2.72
2023-02-19T00:28:53.817Z,3.08
2023-02-19T00:31:33.972Z,2.88
2023-02-19T00:34:11.109Z,3.30
2023-02-19T00:36:46.287Z,2.70
2023-02-19T00:39:21.287Z,3.13
2023-02-19T00:41:58.437Z,3.22
2023-02-19T00:44:33.654Z,3.03
2023-02-19T00:47:10.056Z,3.30
2023-02-19T00:49:46.293Z,3.20
2023-02-19T00:52:21.102Z,3.03
2023-02-19T00:54:55.895Z,3.25
2023-02-19T00:57:30.067Z,3.20
2023-02-19T01:00:04.897Z,2.72
2023-02-19T01:02:41.056Z,3.35
2023-02-19T01:05:15.944Z,3.22
2023-02-19T01:07:50.750Z,3.22
2023-02-19T01:10:26.214Z,3.38
2023-02-19T01:13:00.356Z,2.85
2023-02-19T01:15:35.664Z,2.90
2023-02-19T01:18:11.906Z,2.78
2023-02-19T01:20:47.106Z,3.20
2023-02-19T01:23:22.202Z,3.50
2023-02-19T01:25:57.695Z,3.40
2023-02-19T01:28:32.137Z,3.00
2023-02-19T01:31:08.198Z,3.15
2023-02-19T01:33:45.020Z,3.22
2023-02-19T01:36:20.706Z,2.92
2023-02-19T01:38:55.706Z,2.95
2023-02-19T01:41:31.428Z,3.15
2023-02-19T01:44:07.233Z,3.03
2023-02-19T01:46:44.981Z,3.10
2023-02-19T01:49:23.948Z,3.40
2023-02-19T01:52:02.236Z,3.05
2023-02-19T01:54:41.469Z,3.08
2023-02-19T01:57:18.194Z,2.83
2023-02-19T01:59:56.810Z,3.28
2023-02-19T02:02:31.275Z,3.50
2023-02-19T02:05:09.781Z,3.88
2023-02-19T02:08:00.887Z,3.40
2023-02-19T02:10:35.521Z,3.47
2023-02-19T02:13:10.036Z,3.42
2023-02-19T02:15:49.120Z,3.35
2023-02-19T02:18:27.589Z,3.60
2023-02-19T02:21:17.001Z,3.00
2023-02-19T02:23:58.873Z,3.17
2023-02-19T02:26:46.021Z,3.85
2023-02-19T02:29:39.149Z,3.00
2023-02-19T02:32:17.015Z,3.38
2023-02-19T02:34:53.650Z,3.40
2023-02-19T02:37:29.382Z,3.42
2023-02-19T02:40:04.995Z,3.17
2023-02-19T02:42:40.495Z,3.47
2023-02-19T02:45:41.825Z,3.40
2023-02-19T02:48:42.205Z,3.58
2023-02-19T02:51:21.240Z,3.10
2023-02-19T02:54:25.356Z,3.55
2023-02-19T02:57:01.492Z,3.30
2023-02-19T02:59:42.336Z,3.30
2023-02-19T03:02:20.626Z,3.65
2023-02-19T03:05:24.210Z,3.67
2023-02-19T03:08:01.326Z,3.03
2023-02-19T03:10:38.570Z,3.53
2023-02-19T03:13:31.479Z,3.08
2023-02-19T03:16:24.090Z,3.30
2023-02-19T03:19:27.579Z,3.20
2023-02-19T03:22:05.268Z,3.38
2023-02-19T03:24:57.314Z,3.47
2023-02-19T03:27:33.738Z,3.42
2023-02-19T03:30:10.328Z,3.20
2023-02-19T03:32:46.068Z,3.47
2023-02-19T03:35:23.909Z,3.40
2023-02-19T03:38:08.956Z,3.53
2023-02-19T03:40:49.173Z,3.45
2023-02-19T03:43:26.558Z,3.15
2023-02-19T03:46:05.557Z,2.80
2023-02-19T03:48:40.738Z,2.75
2023-02-19T03:51:25.987Z,3.25
2023-02-19T03:54:07.429Z,3.45
2023-02-19T03:56:46.158Z,3.42
2023-02-19T03:59:22.654Z,3.08
2023-02-19T04:01:59.213Z,3.08
2023-02-19T04:04:35.623Z,3.25
2023-02-19T04:07:14.169Z,3.38
2023-02-19T04:09:52.608Z,2.97
2023-02-19T04:12:30.464Z,3.65
2023-02-19T04:15:07.096Z,3.50
2023-02-19T04:17:43.483Z,3.40
2023-02-19T04:20:19.003Z,3.17
2023-02-19T04:22:53.949Z,3.20
2023-02-19T04:25:31.611Z,3.28
2023-02-19T04:28:07.098Z,3.20
2023-02-19T04:30:41.751Z,3.75
2023-02-19T04:33:17.379Z,3.15
2023-02-19T04:35:52.248Z,3.55
2023-02-19T04:38:27.392Z,3.83
2023-02-19T04:41:03.809Z,3.35
2023-02-19T04:43:39.537Z,3.55
2023-02-19T04:46:14.132Z,3.22
2023-02-19T04:48:49.372Z,3.05
2023-02-19T04:51:23.714Z,3.30
2023-02-19T04:53:59.681Z,3.20
2023-02-19T04:56:36.253Z,3.50
2023-02-19T04:59:12.030Z,3.22
2023-02-19T05:01:46.770Z,3.30
2023-02-19T05:04:22.887Z,3.85
2023-02-19T05:06:57.207Z,3.45
2023-02-19T05:09:32.210Z,3.53
2023-02-19T05:12:08.918Z,3.33
2023-02-19T05:14:44.521Z,3.22
2023-02-19T05:17:18.902Z,3.10
2023-02-19T05:19:53.886Z,3.80
2023-02-19T05:22:28.221Z,3.63
2023-02-19T05:25:02.992Z,3.67
2023-02-19T05:27:40.133Z,3.28
2023-02-19T05:30:16.222Z,3.40
2023-02-19T05:32:50.513Z,3.17
2023-02-19T05:35:25.345Z,3.33
2023-02-19T05:37:59.952Z,3.13
2023-02-19T05:40:34.907Z,3.40
2023-02-19T05:43:11.081Z,3.30
2023-02-19T05:45:46.373Z,3.50
2023-02-19T05:48:20.978Z,3.50
2023-02-19T05:50:56.229Z,3.10
2023-02-19T05:53:31.619Z,3.58
2023-02-19T05:56:07.753Z,3.50
2023-02-19T05:58:45.115Z,3.00
2023-02-19T06:01:23.842Z,3.15
2023-02-19T06:03:59.519Z,3.45
2023-02-19T06:06:35.677Z,3.25
2023-02-19T06:09:12.660Z,3.33
2023-02-19T06:11:47.346Z,3.45
2023-02-19T06:14:23.629Z,3.40
2023-02-19T06:16:58.870Z,3.60
2023-02-19T06:19:33.012Z,3.05
2023-02-19T06:22:07.940Z,3.30
2023-02-19T06:24:43.039Z,3.83
2023-02-19T06:27:19.067Z,3.20
2023-02-19T06:29:56.328Z,3.22
2023-02-19T06:32:32.670Z,3.20
2023-02-19T06:35:08.012Z,3.70
2023-02-19T06:37:43.774Z,3.40
2023-02-19T06:40:19.266Z,3.33
2023-02-19T06:42:55.113Z,3.72
2023-02-19T06:45:32.181Z,3.78
2023-02-19T06:48:08.370Z,3.50
2023-02-19T06:50:43.471Z,3.60
2023-02-19T06:53:19.558Z,3.15
2023-02-19T06:56:02.283Z,3.40
2023-02-19T06:58:38.595Z,3.10
2023-02-19T07:01:17.289Z,3.72
2023-02-19T07:03:56.694Z,3.42
2023-02-19T07:06:33.570Z,3.65
2023-02-19T07:09:09.327Z,3.60
2023-02-19T07:11:44.367Z,3.67
2023-02-19T07:14:22.802Z,3.55
2023-02-19T07:16:59.812Z,3.35
2023-02-19T07:19:37.917Z,3.80
2023-02-19T07:22:15.122Z,3.47
2023-02-19T07:24:51.666Z,3.60
2023-02-19T07:27:27.824Z,3.85
2023-02-19T07:30:02.801Z,3.50
2023-02-19T07:32:38.908Z,3.90
2023-02-19T07:35:14.606Z,4.13
2023-02-19T07:37:48.787Z,4.30
2023-02-19T07:40:23.844Z,4.32
2023-02-19T07:42:57.977Z,3.80
2023-02-19T07:45:33.221Z,3.80
2023-02-19T07:48:09.628Z,3.78
2023-02-19T07:50:45.032Z,3.63
2023-02-19T07:53:19.493Z,3.60
2023-02-19T07:55:54.645Z,3.78
2023-02-19T07:58:32.119Z,3.33
2023-02-19T08:01:14.677Z,3.40
2023-02-19T08:03:50.567Z,3.22
2023-02-19T08:06:27.639Z,3.50
2023-02-19T08:09:02.768Z,3.20
2023-02-19T08:11:54.380Z,3.50
2023-02-19T08:14:31.265Z,3.70
2023-02-19T08:17:07.291Z,4.00
2023-02-19T08:19:44.438Z,4.00
2023-02-19T08:22:20.353Z,3.38
2023-02-19T08:24:55.327Z,3.40
2023-02-19T08:27:31.458Z,3.90
2023-02-19T08:30:06.222Z,4.20
2023-02-19T08:32:41.476Z,3.90
2023-02-19T08:35:18.480Z,4.13
2023-02-19T08:37:54.627Z,3.67
2023-02-19T08:40:30.363Z,3.67
2023-02-19T08:43:09.030Z,3.42
2023-02-19T08:45:45.077Z,3.95
2023-02-19T08:48:21.737Z,4.03
2023-02-19T08:51:05.314Z,3.63
2023-02-19T08:53:41.605Z,3.60
2023-02-19T08:56:16.989Z,3.78
2023-02-19T08:58:53.016Z,3.65
2023-02-19T09:01:27.884Z,3.60
2023-02-19T09:04:03.329Z,3.83
2023-02-19T09:06:40.302Z,3.60
2023-02-19T09:09:16.674Z,3.60
2023-02-19T09:11:51.645Z,3.63
2023-02-19T09:14:26.856Z,3.88
2023-02-19T09:17:01.769Z,3.95
2023-02-19T09:19:38.308Z,3.53
2023-02-19T09:22:17.114Z,4.18
2023-02-19T09:24:53.237Z,3.75
2023-02-19T09:27:30.509Z,3.60
2023-02-19T09:30:06.927Z,3.95
2023-02-19T09:32:43.299Z,3.60
2023-02-19T09:35:18.575Z,3.88
2023-02-19T09:37:55.497Z,3.60
2023-02-19T09:40:33.679Z,3.97
2023-02-19T09:43:13.336Z,3.78
2023-02-19T09:45:47.960Z,3.92
2023-02-19T09:48:24.501Z,3.60
2023-02-19T09:51:05.395Z,3.72
2023-02-19T09:53:47.740Z,3.85
2023-02-19T09:56:25.769Z,3.97
2023-02-19T09:59:02.732Z,3.67
2023-02-19T10:01:42.606Z,3.83
2023-02-19T10:04:17.168Z,4.15
2023-02-19T10:06:51.823Z,3.72
2023-02-19T10:09:30.672Z,3.58
2023-02-19T10:12:09.908Z,3.50
2023-02-19T10:14:47.037Z,3.88
2023-02-19T10:17:27.231Z,3.95
2023-02-19T10:20:02.261Z,3.40
2023-02-19T10:22:38.579Z,4.05
2023-02-19T10:25:21.745Z,3.50
2023-02-19T10:27:58.951Z,3.40
2023-02-19T10:30:35.022Z,3.00
2023-02-19T10:33:14.302Z,3.92
2023-02-19T10:35:58.225Z,3.33
2023-02-19T10:38:34.544Z,3.75
2023-02-19T10:41:12.764Z,3.75
2023-02-19T10:43:51.483Z,3.60
2023-02-19T10:46:27.041Z,3.83
2023-02-19T10:49:02.580Z,4.18
2023-02-19T10:51:37.819Z,3.95
2023-02-19T10:54:14.450Z,3.90
2023-02-19T10:56:50.682Z,3.80
2023-02-19T10:59:29.670Z,3.67
2023-02-19T11:02:04.483Z,3.55
2023-02-19T11:04:40.099Z,3.42
2023-02-19T11:07:14.981Z,3.83
2023-02-19T11:09:50.154Z,3.70
2023-02-19T11:12:30.828Z,4.15
2023-02-19T11:15:25.634Z,3.92
2023-02-19T11:18:00.509Z,3.50
2023-02-19T11:20:34.913Z,3.50
2023-02-19T11:23:11.778Z,3.67
2023-02-19T11:25:51.038Z,3.72
2023-02-19T11:28:35.037Z,3.58
2023-02-19T11:31:20.473Z,3.60
2023-02-19T11:33:59.331Z,3.80
2023-02-19T11:36:35.786Z,3.63
2023-02-19T11:39:24.122Z,3.35
2023-02-19T11:42:16.115Z,4.15
2023-02-19T11:44:56.855Z,3.45
2023-02-19T11:47:43.414Z,3.58
2023-02-19T11:50:22.906Z,3.97
2023-02-19T11:53:01.516Z,4.05
2023-02-19T11:55:41.383Z,3.80
2023-02-19T11:58:23.882Z,3.83
2023-02-19T12:01:01.108Z,4.03
2023-02-19T12:03:43.738Z,4.47
2023-02-19T12:06:23.489Z,3.65
2023-02-19T12:09:15.602Z,3.53
2023-02-19T12:11:57.235Z,3.80
2023-02-19T12:14:49.307Z,3.50
2023-02-19T12:17:33.812Z,3.83
2023-02-19T12:20:16.827Z,3.50
2023-02-19T12:22:56.540Z,3.90
2023-02-19T12:25:45.240Z,3.80
2023-02-19T12:28:29.441Z,3.92
2023-02-19T12:31:25.539Z,3.70
2023-02-19T12:34:13.948Z,3.60
2023-02-19T12:36:57.837Z,3.33
2023-02-19T12:39:38.938Z,3.53
2023-02-19T12:42:17.571Z,3.50
2023-02-19T12:44:52.914Z,3.42
2023-02-19T12:47:29.161Z,3.47
2023-02-19T12:50:08.633Z,3.42
2023-02-19T12:52:47.120Z,3.63
2023-02-19T12:55:24.418Z,3.50
2023-02-19T12:57:59.957Z,4.00
2023-02-19T13:00:36.395Z,3.45
2023-02-19T13:03:19.322Z,3.78
2023-02-19T13:05:56.063Z,4.10
2023-02-19T13:08:35.602Z,3.85
2023-02-19T13:11:14.608Z,3.53
2023-02-19T13:13:50.700Z,3.50
2023-02-19T13:16:27.115Z,3.33
2023-02-19T13:19:03.614Z,3.90
2023-02-19T13:21:55.859Z,3.55
2023-02-19T13:24:34.039Z,4.60
2023-02-19T13:27:13.677Z,4.00
2023-02-19T13:29:55.600Z,4.00
2023-02-19T13:32:42.177Z,3.78
2023-02-19T13:35:24.932Z,3.63
2023-02-19T13:38:00.002Z,3.80
2023-02-19T13:40:38.345Z,3.67
2023-02-19T13:43:13.627Z,4.10
2023-02-19T13:45:50.765Z,4.05
2023-02-19T13:48:31.644Z,3.70
2023-02-19T13:51:24.823Z,3.97
2023-02-19T13:54:03.569Z,3.97
2023-02-19T13:56:47.402Z,3.70
2023-02-19T13:59:29.693Z,3.58
2023-02-19T14:02:19.408Z,3.90
2023-02-19T14:04:56.223Z,3.92
2023-02-19T14:07:48.743Z,3.72
2023-02-19T14:10:40.598Z,3.80
2023-02-19T14:13:16.896Z,3.78
2023-02-19T14:15:54.818Z,3.80
2023-02-19T14:18:52.096Z,3.65
2023-02-19T14:21:29.537Z,4.35
2023-02-19T14:24:04.144Z,3.70
2023-02-19T14:26:39.129Z,3.60
2023-02-19T14:29:19.548Z,3.40
2023-02-19T14:31:54.438Z,3.53
2023-02-19T14:34:29.574Z,3.70
2023-02-19T14:37:08.483Z,3.75
2023-02-19T14:39:43.965Z,3.88
2023-02-19T14:42:21.080Z,3.67
2023-02-19T14:44:59.765Z,4.20
2023-02-19T14:47:37.088Z,3.97
2023-02-19T14:50:14.912Z,3.60
2023-02-19T14:52:50.938Z,3.75
2023-02-19T14:55:28.812Z,3.70
2023-02-19T14:58:05.048Z,4.00
2023-02-19T15:00:43.224Z,4.00
2023-02-19T15:03:32.021Z,3.85
2023-02-19T15:06:10.376Z,3.35
2023-02-19T15:08:49.385Z,4.22
2023-02-19T15:11:26.434Z,3.97
2023-02-19T15:14:02.441Z,3.80
2023-02-19T15:16:40.544Z,3.83
2023-02-19T15:19:17.559Z,3.67
2023-02-19T15:21:53.871Z,3.67
2023-02-19T15:24:29.914Z,3.55
2023-02-19T15:27:04.312Z,3.95
2023-02-19T15:29:38.890Z,3.83
2023-02-19T15:32:23.585Z,3.60
2023-02-19T15:35:01.766Z,3.75
2023-02-19T15:37:37.941Z,3.70
2023-02-19T15:40:12.804Z,4.18
2023-02-19T15:42:50.119Z,3.58
2023-02-19T15:45:26.982Z,3.75
2023-02-19T15:48:04.990Z,3.67
2023-02-19T15:50:40.883Z,3.60
2023-02-19T15:53:19.684Z,3.90
2023-02-19T15:56:06.085Z,3.95
2023-02-19T15:58:44.387Z,3.55
2023-02-19T16:01:21.110Z,3.97
2023-02-19T16:03:58.437Z,3.25
2023-02-19T16:06:33.325Z,4.00
2023-02-19T16:09:09.852Z,3.53
2023-02-19T16:11:45.060Z,3.60
2023-02-19T16:14:29.372Z,3.50
2023-02-19T16:17:05.793Z,3.22
2023-02-19T16:19:49.100Z,3.30
2023-02-19T16:22:24.350Z,3.67
2023-02-19T16:25:00.676Z,3.53
2023-02-19T16:27:36.017Z,3.83
2023-02-19T16:30:13.179Z,3.50
2023-02-19T16:32:48.572Z,3.60
2023-02-19T16:35:37.512Z,3.40
2023-02-19T16:38:19.135Z,3.70
2023-02-19T16:41:02.998Z,3.35
2023-02-19T16:43:43.947Z,3.25
2023-02-19T16:46:19.179Z,3.33
2023-02-19T16:48:54.179Z,3.80
2023-02-19T16:51:30.702Z,3.60
2023-02-19T16:54:07.519Z,3.53
2023-02-19T16:56:43.046Z,3.53
2023-02-19T16:59:18.097Z,3.33
2023-02-19T17:01:53.308Z,3.50
2023-02-19T17:04:28.152Z,3.65
2023-02-19T17:07:03.437Z,3.80
2023-02-19T17:09:39.945Z,3.60
2023-02-19T17:12:19.718Z,3.20
2023-02-19T17:14:53.872Z,3.47
2023-02-19T17:17:28.706Z,3.58
2023-02-19T17:20:02.879Z,3.30
2023-02-19T17:22:37.404Z,3.25
2023-02-19T17:25:13.664Z,3.33
2023-02-19T17:27:49.259Z,3.38
2023-02-19T17:30:24.990Z,3.28
2023-02-19T17:32:59.998Z,3.33
2023-02-19T17:35:34.356Z,3.22
2023-02-19T17:38:11.418Z,3.03
2023-02-19T17:40:47.973Z,3.28
2023-02-19T17:43:25.202Z,3.13
2023-02-19T17:45:59.866Z,2.88
2023-02-19T17:48:35.413Z,3.03
2023-02-19T17:51:10.181Z,3.25
2023-02-19T17:53:45.275Z,3.00
2023-02-19T17:56:23.693Z,2.58
2023-02-19T17:59:00.135Z,2.65
2023-02-19T18:01:35.076Z,2.95
2023-02-19T18:04:09.800Z,2.90
2023-02-19T18:06:44.337Z,2.42
2023-02-19T18:09:21.000Z,2.25
2023-02-19T18:11:57.567Z,2.47
2023-02-19T18:14:33.018Z,2.80
2023-02-19T18:17:07.048Z,2.50
2023-02-19T18:19:41.917Z,2.33
2023-02-19T18:22:16.653Z,2.45
2023-02-19T18:24:52.031Z,2.55
2023-02-19T18:27:28.300Z,2.28
2023-02-19T18:30:04.077Z,2.40
2023-02-19T18:32:38.804Z,2.25
2023-02-19T18:35:13.954Z,2.08
2023-02-19T18:37:48.332Z,2.10
2023-02-19T18:40:23.875Z,2.45
2023-02-19T18:43:00.481Z,2.20
2023-02-19T18:45:37.770Z,2.20
2023-02-19T18:48:12.225Z,2.47
2023-02-19T18:50:47.585Z,2.60
2023-02-19T18:53:22.296Z,2.05
2023-02-19T18:55:57.068Z,2.28
2023-02-19T18:58:33.331Z,2.00
2023-02-19T19:01:09.111Z,2.20
2023-02-19T19:03:43.992Z,2.15
2023-02-19T19:06:18.647Z,2.40
2023-02-19T19:08:53.631Z,2.15
2023-02-19T19:11:31.694Z,2.53
2023-02-19T19:14:08.227Z,2.13
2023-02-19T19:16:43.912Z,2.40
2023-02-19T19:19:18.431Z,2.80
2023-02-19T19:21:56.404Z,2.00
2023-02-19T19:24:31.145Z,2.50
2023-02-19T19:27:05.871Z,1.75
2023-02-19T19:29:42.332Z,2.15
2023-02-19T19:32:18.549Z,2.30
2023-02-19T19:34:53.198Z,2.25
2023-02-19T19:37:28.605Z,2.42
2023-02-19T19:40:03.160Z,2.40
2023-02-19T19:42:38.593Z,2.35
2023-02-19T19:45:15.665Z,2.50
2023-02-19T19:47:51.086Z,2.70
2023-02-19T19:50:25.762Z,3.08
2023-02-19T19:53:01.224Z,2.85
2023-02-19T19:55:35.818Z,3.40
2023-02-19T19:58:10.692Z,3.65
2023-02-19T20:00:46.969Z,3.92
2023-02-19T20:03:23.037Z,4.15
2023-02-19T20:05:57.760Z,4.10
2023-02-19T20:08:32.578Z,4.30
2023-02-19T20:11:07.428Z,3.67
2023-02-19T20:13:42.603Z,4.10
2023-02-19T20:16:19.242Z,4.03
2023-02-19T20:18:54.761Z,4.28
2023-02-19T20:21:29.252Z,4.10
2023-02-19T20:24:05.217Z,4.10
2023-02-19T20:26:39.736Z,3.72
2023-02-19T20:29:14.135Z,3.50
2023-02-19T20:31:55.141Z,3.40
2023-02-19T20:34:30.714Z,2.63
2023-02-19T20:37:05.414Z,2.78
2023-02-19T20:39:40.913Z,2.65
2023-02-19T20:42:16.741Z,2.13
2023-02-19T20:44:56.924Z,2.63
2023-02-19T20:47:33.585Z,2.35
2023-02-19T20:50:08.526Z,2.75
2023-02-19T20:52:43.558Z,2.63
2023-02-19T20:55:18.849Z,2.35
2023-02-19T20:57:54.331Z,2.60
2023-02-19T21:00:28.918Z,2.10
2023-02-19T21:03:05.651Z,2.55
2023-02-19T21:05:41.578Z,2.40
2023-02-19T21:08:16.700Z,2.53
2023-02-19T21:10:51.269Z,2.50
2023-02-19T21:13:26.119Z,2.30
2023-02-19T21:16:01.181Z,2.40
2023-02-19T21:18:37.608Z,2.40
2023-02-19T21:21:12.576Z,2.17
2023-02-19T21:23:47.116Z,2.30
2023-02-19T21:26:21.852Z,2.17
2023-02-19T21:28:56.291Z,2.05
2023-02-19T21:31:30.524Z,2.20
2023-02-19T21:34:08.778Z,2.55
2023-02-19T21:36:44.673Z,2.53
2023-02-19T21:39:22.335Z,2.38
2023-02-19T21:42:00.296Z,2.08
2023-02-19T21:44:37.717Z,2.10
2023-02-19T21:47:13.030Z,2.40
2023-02-19T21:49:50.503Z,2.75
2023-02-19T21:52:28.492Z,2.50
2023-02-19T21:55:04.112Z,2.47
2023-02-19T21:57:40.464Z,2.60
2023-02-19T22:00:16.387Z,2.63
2023-02-19T22:02:51.964Z,2.75
2023-02-19T22:05:29.650Z,3.40
2023-02-19T22:08:05.761Z,2.92
2023-02-19T22:10:42.499Z,2.70
2023-02-19T22:13:17.839Z,2.78
2023-02-19T22:15:52.862Z,3.30
2023-02-19T22:18:28.730Z,3.30
2023-02-19T22:21:04.936Z,2.80
2023-02-19T22:23:39.775Z,3.33
2023-02-19T22:26:14.283Z,3.53
2023-02-19T22:28:49.590Z,3.92
2023-02-19T22:31:24.819Z,4.00
2023-02-19T22:33:59.496Z,3.60
2023-02-19T22:36:38.614Z,3.70
2023-02-19T22:39:19.302Z,3.75
2023-02-19T22:41:53.500Z,4.32
2023-02-19T22:44:27.717Z,4.10
2023-02-19T22:47:02.209Z,4.18
2023-02-19T22:49:37.534Z,4.93
2023-02-19T22:52:15.102Z,4.90
2023-02-19T22:54:50.960Z,5.43
2023-02-19T22:57:25.728Z,5.95
2023-02-19T23:00:01.148Z,5.82
2023-02-19T23:02:35.533Z,6.07
2023-02-19T23:05:09.961Z,5.68
2023-02-19T23:07:47.472Z,5.78
2023-02-19T23:10:23.154Z,5.93
2023-02-19T23:12:57.605Z,5.38
2023-02-19T23:15:31.857Z,5.55
2023-02-19T23:18:07.917Z,5.35
2023-02-19T23:20:43.096Z,5.10
2023-02-19T23:23:19.257Z,4.85
2023-02-19T23:25:54.162Z,4.55
2023-02-19T23:28:29.008Z,4.40
2023-02-19T23:31:04.057Z,5.10
2023-02-19T23:33:39.205Z,4.30
2023-02-19T23:36:14.426Z,4.57
2023-02-19T23:38:51.636Z,5.43
2023-02-19T23:41:26.963Z,4.18
2023-02-19T23:44:01.407Z,3.47
2023-02-19T23:46:36.066Z,3.88
2023-02-19T23:49:10.236Z,3.53
2023-02-19T23:51:45.037Z,3.80
2023-02-19T23:54:21.497Z,4.03
2023-02-19T23:56:56.615Z,4.20
2023-02-19T23:59:30.838Z,4.05
